Time;durP1;ratioP1;P1;durP2;ratioP2;P2;SDS_P1;SDS_P2;PMS_P1;PMS_P2;Temp;Humidity;BMP_temperature;BMP_pressure;BME280_temperature;BME280_humidity;BME280_pressure;Samples;Min_cycle;Max_cycle;Signal;HPM_P1;HPM_P2
2022/01/08 00:01:11;;;;;;;5.95;3.50;;;;;;;0.62;87.18;95475.13;4833446;29;20046;-48
2022/01/08 00:03:39;;;;;;;4.22;3.00;;;;;;;0.50;87.09;95469.34;4830959;29;20107;-48
2022/01/08 00:06:07;;;;;;;4.40;2.85;;;;;;;0.39;87.33;95460.69;4825963;29;20067;-49
2022/01/08 00:08:34;;;;;;;4.40;2.83;;;;;;;0.37;87.35;95457.50;4825200;29;20050;-54
2022/01/08 00:11:01;;;;;;;4.60;2.90;;;;;;;0.43;86.15;95452.91;4843587;29;20073;-49
2022/01/08 00:13:28;;;;;;;4.07;2.58;;;;;;;0.50;85.31;95463.25;4835143;29;20133;-50
2022/01/08 00:15:55;;;;;;;3.53;2.22;;;;;;;0.61;85.97;95465.53;4825034;29;20056;-51
2022/01/08 00:18:23;;;;;;;5.13;2.50;;;;;;;0.56;85.49;95462.91;4825069;29;20056;-49
2022/01/08 00:20:50;;;;;;;4.20;2.53;;;;;;;0.69;85.14;95461.47;4843332;29;20054;-47
2022/01/08 00:23:17;;;;;;;4.47;2.50;;;;;;;0.46;85.42;95455.81;4836723;29;20420;-49
2022/01/08 00:25:44;;;;;;;4.75;2.38;;;;;;;0.55;85.49;95445.34;4824851;29;20047;-49
2022/01/08 00:28:11;;;;;;;3.80;2.40;;;;;;;0.42;85.75;95452.13;4825576;29;20047;-51
2022/01/08 00:30:38;;;;;;;3.53;2.30;;;;;;;0.38;85.78;95440.44;4825402;29;20171;-49
2022/01/08 00:33:05;;;;;;;4.78;2.72;;;;;;;0.17;85.22;95447.81;4843548;29;20050;-51
2022/01/08 00:35:33;;;;;;;4.18;2.55;;;;;;;0.43;85.15;95437.75;4842902;29;20042;-48
2022/01/08 00:38:01;;;;;;;6.07;2.95;;;;;;;0.35;85.65;95441.00;4836296;29;20134;-49
2022/01/08 00:40:28;;;;;;;4.43;2.50;;;;;;;0.41;85.56;95434.56;4828994;29;20518;-49
2022/01/08 00:42:55;;;;;;;5.30;2.90;;;;;;;0.45;85.32;95429.47;4843316;29;20583;-53
2022/01/08 00:45:23;;;;;;;4.53;2.88;;;;;;;0.34;85.74;95423.44;4842764;29;20147;-51
2022/01/08 00:47:50;;;;;;;4.45;3.05;;;;;;;0.31;85.61;95415.22;4843457;29;20045;-51
2022/01/08 00:50:17;;;;;;;4.60;2.78;;;;;;;0.21;86.25;95419.56;4836880;29;20064;-47
2022/01/08 00:52:44;;;;;;;5.60;3.10;;;;;;;0.27;85.71;95419.53;4828348;29;20073;-48
2022/01/08 00:55:12;;;;;;;4.35;2.85;;;;;;;0.29;85.75;95409.38;4824184;29;20137;-48
2022/01/08 00:57:42;;;;;;;6.53;2.92;;;;;;;0.26;85.88;95412.59;4823542;29;20080;-50
2022/01/08 01:00:13;;;;;;;;;;;;;;;0.35;85.88;95408.28;4823917;29;20046;-50
2022/01/08 01:02:40;;;;;;;5.55;2.78;;;;;;;0.39;85.38;95403.97;4832292;29;19936;-53
2022/01/08 01:05:09;;;;;;;4.15;2.83;;;;;;;0.44;85.19;95395.94;4824108;29;20051;-46
2022/01/08 01:07:37;;;;;;;4.93;2.50;;;;;;;0.27;85.42;95392.94;4824787;29;20047;-48
2022/01/08 01:10:06;;;;;;;5.15;2.75;;;;;;;0.27;85.65;95395.59;4824071;29;20054;-48
2022/01/08 01:12:33;;;;;;;4.05;2.67;;;;;;;0.37;84.95;95390.16;4824362;29;20515;-48
2022/01/08 01:15:09;;;;;;;4.50;2.97;;;;;;;0.43;84.42;95384.50;4819685;29;20074;-47
2022/01/08 01:17:36;;;;;;;4.95;3.05;;;;;;;0.37;84.87;95382.19;4812633;29;20085;-48
2022/01/08 01:20:04;;;;;;;6.63;3.53;;;;;;;0.38;84.52;95373.13;4824626;29;20419;-48
2022/01/08 01:22:41;;;;;;;9.65;3.60;;;;;;;0.32;84.83;95377.69;4824266;29;20053;-49
2022/01/08 01:25:12;;;;;;;5.07;2.85;;;;;;;0.33;84.71;95370.53;4823381;29;20042;-47
2022/01/08 01:30:27;;;;;;;5.78;2.95;;;;;;;0.50;84.35;95362.88;4826783;29;20046;-51
2022/01/08 01:41:28;;;;;;;3.95;2.70;;;;;;;0.55;83.59;95346.84;4840733;29;20065;-48
2022/01/08 01:49:21;;;;;;;4.47;2.85;;;;;;;0.70;82.54;95330.72;4806023;29;20059;-50
2022/01/08 01:51:48;;;;;;;6.03;2.88;;;;;;;0.76;82.31;95328.00;4814404;29;20046;-50
2022/01/08 01:54:15;;;;;;;4.68;2.88;;;;;;;0.69;82.19;95325.69;4825818;29;20051;-51
2022/01/08 01:56:43;;;;;;;5.90;3.00;;;;;;;0.58;82.45;95305.56;4824105;29;20049;-49
2022/01/08 01:59:13;;;;;;;5.63;2.72;;;;;;;-0.30;87.08;95302.97;4823756;29;20050;-49
2022/01/08 02:01:40;;;;;;;5.10;3.25;;;;;;;0.02;86.68;95309.59;4829544;29;20046;-49
2022/01/08 02:04:07;;;;;;;4.95;3.00;;;;;;;-0.66;87.51;95306.97;4829335;29;20057;-49
2022/01/08 02:06:34;;;;;;;3.95;2.50;;;;;;;-0.48;88.40;95304.44;4823759;29;20042;-50
2022/01/08 02:09:00;;;;;;;4.28;2.65;;;;;;;0.09;85.43;95303.97;4823331;29;20493;-51
2022/01/08 02:11:27;;;;;;;6.03;2.95;;;;;;;0.33;83.33;95304.78;4841905;29;20064;-51
2022/01/08 02:14:04;;;;;;;4.38;2.90;;;;;;;0.35;82.58;95301.84;4833198;29;20215;-49
2022/01/08 02:16:31;;;;;;;4.03;2.70;;;;;;;0.21;83.29;95289.19;4823537;29;20133;-51
2022/01/08 02:18:58;;;;;;;4.15;2.72;;;;;;;0.31;82.80;95285.66;4823704;29;20493;-50
2022/01/08 02:21:26;;;;;;;6.47;3.17;;;;;;;0.37;82.37;95278.41;4822501;29;20050;-51
2022/01/08 02:23:53;;;;;;;4.32;3.20;;;;;;;0.38;82.69;95279.97;4835524;29;20046;-51
2022/01/08 02:26:20;;;;;;;5.38;3.45;;;;;;;0.39;82.51;95282.38;4823504;29;20046;-47
2022/01/08 02:28:47;;;;;;;6.45;3.20;;;;;;;0.36;82.63;95277.63;4823695;29;20133;-51
2022/01/08 02:31:23;;;;;;;5.63;3.50;;;;;;;0.37;82.99;95271.22;4820736;29;20051;-49
2022/01/08 02:33:50;;;;;;;6.55;3.53;;;;;;;0.40;82.56;95267.19;4823171;29;20408;-47
2022/01/08 02:36:17;;;;;;;5.70;3.00;;;;;;;0.34;82.90;95261.13;4823648;29;20564;-51
2022/01/08 02:38:44;;;;;;;6.53;2.97;;;;;;;0.35;82.69;95262.72;4822972;29;20054;-48
2022/01/08 02:41:12;;;;;;;5.30;3.00;;;;;;;0.34;82.65;95257.69;4823285;29;20668;-46
2022/01/08 02:43:44;;;;;;;5.20;2.92;;;;;;;0.29;82.62;95247.88;4823342;29;20050;-52
2022/01/08 02:46:12;;;;;;;5.30;3.08;;;;;;;0.29;82.58;95239.09;4836914;29;20046;-48
2022/01/08 02:48:39;;;;;;;3.88;2.55;;;;;;;0.28;82.53;95237.53;4835785;29;20042;-52
2022/01/08 02:51:06;;;;;;;4.70;2.80;;;;;;;0.28;82.60;95238.31;4841123;29;20102;-52
2022/01/08 02:53:33;;;;;;;5.20;3.05;;;;;;;0.22;83.34;95229.59;4822096;29;20493;-49
2022/01/08 02:56:00;;;;;;;4.28;2.72;;;;;;;-0.01;84.07;95225.06;4822362;29;20047;-52
2022/01/08 02:58:28;;;;;;;4.15;2.70;;;;;;;0.07;84.01;95226.34;4822768;29;20055;-49
2022/01/08 03:00:56;;;;;;;3.85;2.78;;;;;;;0.06;84.20;95222.06;4836344;29;20053;-49
2022/01/08 03:03:23;;;;;;;5.72;2.75;;;;;;;-0.02;84.35;95220.81;4835745;29;20394;-47
2022/01/08 03:05:50;;;;;;;3.95;3.00;;;;;;;-0.05;84.49;95203.56;4836220;29;20047;-51
2022/01/08 03:08:18;;;;;;;5.25;3.42;;;;;;;-0.08;84.45;95208.66;4822905;29;20062;-48
2022/01/08 03:10:48;;;;;;;4.47;2.92;;;;;;;-0.08;84.55;95187.38;4829516;29;20077;-48
2022/01/08 03:13:14;;;;;;;6.07;3.10;;;;;;;0.03;84.31;95190.72;4839176;29;20046;-50
2022/01/08 03:15:41;;;;;;;5.10;3.20;;;;;;;-0.05;84.45;95186.81;4822041;29;20088;-49
2022/01/08 03:18:08;;;;;;;4.75;3.00;;;;;;;-0.12;84.46;95181.06;4822577;29;20847;-49
2022/01/08 03:20:44;;;;;;;5.78;3.28;;;;;;;-0.09;84.31;95186.59;4822631;29;20137;-48
2022/01/08 03:23:15;;;;;;;4.97;2.90;;;;;;;-0.15;84.32;95186.94;4826067;29;20050;-48
2022/01/08 03:25:43;;;;;;;5.05;2.95;;;;;;;-0.18;84.23;95187.50;4821950;29;20057;-48
2022/01/08 03:28:11;;;;;;;6.82;2.78;;;;;;;-0.32;84.24;95172.22;4822013;29;20050;-48
2022/01/08 03:30:40;;;;;;;6.05;3.00;;;;;;;-0.15;84.19;95178.97;4822567;29;20046;-48
2022/01/08 03:33:07;;;;;;;4.50;2.80;;;;;;;-0.17;84.11;95170.47;4830594;29;20481;-50
2022/01/08 03:35:34;;;;;;;4.68;2.90;;;;;;;-0.17;84.17;95173.13;4821838;29;20039;-51
2022/01/08 03:38:02;;;;;;;4.60;3.00;;;;;;;-0.17;83.99;95159.81;4822360;29;20416;-51
2022/01/08 03:40:28;;;;;;;5.40;2.80;;;;;;;-0.18;83.77;95158.25;4822490;29;20065;-48
2022/01/08 03:42:55;;;;;;;5.68;3.50;;;;;;;-0.05;83.24;95162.88;4839088;29;20081;-50
2022/01/08 03:45:22;;;;;;;4.70;3.00;;;;;;;-0.07;83.25;95157.06;4839870;29;20050;-49
2022/01/08 03:50:35;;;;;;;5.35;2.90;;;;;;;-0.37;84.39;95153.66;4824668;29;20050;-48
2022/01/08 03:53:02;;;;;;;4.22;2.53;;;;;;;-0.32;84.31;95150.16;4825669;29;20807;-48
2022/01/08 03:55:29;;;;;;;3.90;2.40;;;;;;;-0.40;84.84;95148.13;4821720;29;20054;-53
2022/01/08 03:57:55;;;;;;;3.38;2.17;;;;;;;-0.37;84.59;95140.38;4822377;29;20046;-48
2022/01/08 04:00:23;;;;;;;4.70;2.92;;;;;;;-0.30;84.38;95140.81;4822079;29;20054;-50
2022/01/08 04:02:51;;;;;;;4.25;2.63;;;;;;;-0.30;84.33;95135.50;4821942;29;20477;-50
2022/01/08 04:05:18;;;;;;;5.20;2.83;;;;;;;-0.30;84.29;95134.72;4821638;29;20060;-52
2022/01/08 04:07:45;;;;;;;3.92;2.30;;;;;;;-0.32;84.35;95120.94;4822343;29;20054;-49
2022/01/08 04:10:12;;;;;;;5.88;2.42;;;;;;;-0.47;84.76;95121.88;4822099;29;20168;-49
2022/01/08 04:12:44;;;;;;;4.00;2.38;;;;;;;-0.40;84.59;95121.53;4821777;29;20133;-50
2022/01/08 04:17:48;;;;;;;4.10;2.55;;;;;;;-0.53;85.00;95101.75;4822618;29;20058;-51
2022/01/08 04:20:16;;;;;;;3.90;2.30;;;;;;;-0.61;85.07;95089.88;4840258;29;20445;-50
2022/01/08 04:22:45;;;;;;;4.78;2.95;;;;;;;-0.66;85.58;95105.06;4837598;29;20053;-48
2022/01/08 04:25:14;;;;;;;5.22;3.13;;;;;;;-0.71;85.68;95101.41;4840052;29;20054;-52
2022/01/08 04:27:41;;;;;;;5.32;3.47;;;;;;;-0.67;85.39;95095.53;4840218;29;20054;-52
2022/01/08 04:30:09;;;;;;;5.43;3.65;;;;;;;-0.58;84.74;95096.50;4838976;29;20081;-50
2022/01/08 04:32:36;;;;;;;4.07;2.53;;;;;;;-0.64;85.07;95081.69;4829036;29;20046;-50
2022/01/08 04:35:03;;;;;;;4.10;2.47;;;;;;;-0.72;85.28;95083.84;4821518;29;20080;-50
2022/01/08 04:37:30;;;;;;;5.93;2.80;;;;;;;-0.76;85.54;95087.38;4821848;29;20095;-50
2022/01/08 04:39:58;;;;;;;3.45;2.13;;;;;;;-0.66;85.05;95091.78;4840866;29;20155;-48
2022/01/08 04:42:25;;;;;;;3.35;1.92;;;;;;;-0.78;85.46;95089.50;4826062;29;20054;-48
2022/01/08 04:44:54;;;;;;;4.32;2.13;;;;;;;-0.69;85.26;95081.72;4821304;29;20628;-49
2022/01/08 04:47:21;;;;;;;3.33;2.05;;;;;;;-0.75;85.44;95078.31;4825036;29;20049;-48
2022/01/08 04:49:47;;;;;;;3.33;2.00;;;;;;;-0.77;85.32;95081.28;4841410;29;20137;-46
2022/01/08 04:52:14;;;;;;;3.05;1.80;;;;;;;-0.69;85.14;95081.72;4834213;29;20066;-50
2022/01/08 04:54:41;;;;;;;3.75;2.03;;;;;;;-0.55;84.61;95087.97;4824271;29;20046;-50
2022/01/08 04:57:09;;;;;;;3.00;1.90;;;;;;;-0.33;83.62;95092.75;4824451;29;20385;-48
2022/01/08 04:59:36;;;;;;;3.35;1.95;;;;;;;-0.68;84.30;95096.56;4825192;29;20054;-53
2022/01/08 05:02:03;;;;;;;3.17;1.70;;;;;;;-0.62;84.39;95096.25;4843120;29;20053;-49
2022/01/08 05:04:30;;;;;;;4.57;2.20;;;;;;;-0.65;84.54;95088.03;4842395;29;20057;-49
2022/01/08 05:06:57;;;;;;;4.60;2.42;;;;;;;-0.73;84.94;95127.44;4843102;29;20046;-50
2022/01/08 05:09:24;;;;;;;2.97;1.90;;;;;;;-0.88;85.38;95138.19;4841396;29;20050;-49
2022/01/08 05:11:51;;;;;;;2.85;1.67;;;;;;;-0.93;86.09;95167.47;4824789;29;20077;-52
2022/01/08 05:14:18;;;;;;;2.45;1.42;;;;;;;-1.02;86.52;95161.16;4823872;29;20054;-50
2022/01/08 05:16:46;;;;;;;2.28;1.35;;;;;;;-0.91;86.55;95170.63;4824535;29;20789;-51
2022/01/08 05:19:21;;;;;;;2.90;1.70;;;;;;;-0.95;87.84;95165.06;4835332;29;20153;-48
2022/01/08 05:21:54;;;;;;;2.85;1.88;;;;;;;-0.74;88.12;95152.41;4826055;29;20046;-51
2022/01/08 05:24:21;;;;;;;2.67;1.42;;;;;;;-0.35;87.01;95151.53;4842170;29;20062;-48
2022/01/08 05:26:48;;;;;;;4.47;1.60;;;;;;;0.02;85.39;95139.41;4837499;29;20045;-50
2022/01/08 05:29:16;;;;;;;2.60;1.40;;;;;;;-0.03;85.61;95126.19;4824035;29;20057;-49
2022/01/08 05:31:42;;;;;;;9.73;6.97;;;;;;;0.04;85.31;95121.31;4825379;29;20050;-50
2022/01/08 05:34:11;;;;;;;12.07;7.25;;;;;;;0.23;84.32;95119.47;4855127;23;20057;-50
2022/01/08 05:36:38;;;;;;;9.98;6.40;;;;;;;0.28;84.48;95112.47;4848593;29;20049;-48
2022/01/08 05:39:05;;;;;;;6.65;4.00;;;;;;;0.36;83.89;95122.50;4850486;29;20060;-48
2022/01/08 05:41:32;;;;;;;3.30;1.92;;;;;;;0.43;83.94;95113.06;4843993;29;20064;-50
2022/01/08 05:43:58;;;;;;;2.60;1.33;;;;;;;0.45;83.63;95104.78;4842642;29;20042;-45
2022/01/08 05:46:26;;;;;;;3.92;1.10;;;;;;;0.37;84.76;95116.09;4857371;29;20065;-48
2022/01/08 05:48:52;;;;;;;2.03;1.35;;;;;;;0.40;84.46;95112.84;4860988;29;20416;-47
2022/01/08 05:51:19;;;;;;;3.03;1.30;;;;;;;0.44;84.31;95111.97;4856358;29;20053;-50
2022/01/08 05:53:46;;;;;;;2.17;1.40;;;;;;;0.56;83.78;95111.56;4842349;29;20140;-49
2022/01/08 05:56:13;;;;;;;2.85;1.45;;;;;;;0.32;83.78;95124.13;4853178;29;20049;-48
2022/01/08 05:58:40;;;;;;;3.13;1.50;;;;;;;0.04;84.60;95126.63;4860773;29;20696;-53
2022/01/08 06:01:07;;;;;;;2.38;1.33;;;;;;;0.07;84.64;95131.38;4859143;29;20129;-51
2022/01/08 06:03:34;;;;;;;2.28;1.45;;;;;;;0.25;84.36;95137.00;4860553;29;20054;-48
2022/01/08 06:06:01;;;;;;;1.73;1.00;;;;;;;0.04;85.95;95136.47;4859981;29;20457;-50
2022/01/08 06:08:28;;;;;;;1.95;1.23;;;;;;;0.04;86.79;95144.44;4860568;29;20045;-46
2022/01/08 06:10:55;;;;;;;1.95;1.08;;;;;;;-0.02;87.91;95127.75;4847867;29;20077;-48
2022/01/08 06:13:22;;;;;;;1.30;0.82;;;;;;;0.02;88.19;95127.97;4843581;29;20149;-45
2022/01/08 06:15:48;;;;;;;1.25;0.90;;;;;;;0.11;88.21;95127.06;4857836;29;20469;-45
2022/01/08 06:18:16;;;;;;;2.38;1.13;;;;;;;0.16;87.97;95108.38;4855287;29;20560;-46
2022/01/08 06:20:43;;;;;;;1.67;0.95;;;;;;;0.36;87.52;95107.31;4842207;29;20050;-47
2022/01/08 06:23:10;;;;;;;2.70;1.02;;;;;;;0.53;86.57;95093.50;4856326;29;20411;-46
2022/01/08 06:25:40;;;;;;;3.67;1.25;;;;;;;0.69;85.70;95104.72;4859596;29;20053;-48
2022/01/08 06:28:07;;;;;;;4.43;1.88;;;;;;;0.44;86.33;95108.53;4860117;29;20140;-45
2022/01/08 06:30:34;;;;;;;8.13;4.63;;;;;;;0.57;85.82;95118.44;4846291;29;20046;-48
2022/01/08 06:33:01;;;;;;;9.13;4.63;;;;;;;0.32;86.47;95116.94;4849271;29;20049;-49
2022/01/08 06:35:28;;;;;;;3.80;2.03;;;;;;;0.44;85.81;95111.19;4859424;29;20046;-46
2022/01/08 06:37:55;;;;;;;3.85;1.90;;;;;;;0.53;84.97;95120.13;4860004;29;20049;-50
2022/01/08 06:40:22;;;;;;;1.45;0.90;;;;;;;0.36;85.43;95127.81;4842423;29;20068;-46
2022/01/08 06:42:49;;;;;;;1.13;0.70;;;;;;;0.33;84.79;95107.88;4855749;29;20129;-48
2022/01/08 06:45:16;;;;;;;1.52;0.90;;;;;;;0.35;84.42;95107.59;4858356;29;20105;-46
2022/01/08 06:47:45;;;;;;;1.13;0.70;;;;;;;0.38;83.75;95109.69;4853070;29;20409;-47
2022/01/08 06:50:13;;;;;;;3.22;1.33;;;;;;;0.47;83.44;95113.28;4841567;29;20076;-47
2022/01/08 06:52:40;;;;;;;1.35;0.77;;;;;;;0.52;82.93;95112.41;4852123;29;20057;-47
2022/01/08 06:55:07;;;;;;;1.63;1.00;;;;;;;0.37;82.06;95108.09;4858095;29;20525;-48
2022/01/08 06:57:35;;;;;;;1.75;0.70;;;;;;;0.45;81.83;95112.75;4860392;29;20049;-50
2022/01/08 07:00:03;;;;;;;1.70;0.80;;;;;;;0.37;81.85;95119.53;4859211;29;20143;-47
2022/01/08 07:02:30;;;;;;;2.47;0.68;;;;;;;0.42;81.15;95111.50;4841812;29;20052;-48
2022/01/08 07:04:57;;;;;;;0.77;0.60;;;;;;;0.42;81.55;95105.34;4839931;29;20080;-49
2022/01/08 07:07:24;;;;;;;0.90;0.70;;;;;;;0.50;81.11;95119.91;4855618;29;20049;-47
2022/01/08 07:09:51;;;;;;;0.80;0.50;;;;;;;0.49;81.21;95116.47;4854392;29;20065;-47
2022/01/08 07:12:18;;;;;;;3.05;1.00;;;;;;;0.53;81.05;95112.13;4840350;29;20076;-48
2022/01/08 07:14:45;;;;;;;1.45;0.68;;;;;;;0.58;80.62;95113.91;4839499;29;20136;-50
2022/01/08 07:17:12;;;;;;;1.38;0.70;;;;;;;0.66;80.58;95126.59;4840103;29;20070;-50
2022/01/08 07:19:39;;;;;;;0.90;0.60;;;;;;;0.64;80.14;95139.38;4840373;29;20078;-47
2022/01/08 07:22:06;;;;;;;0.90;0.63;;;;;;;0.66;80.64;95124.72;4853575;29;20061;-48
2022/01/08 07:24:33;;;;;;;0.82;0.55;;;;;;;0.80;80.37;95137.28;4858980;29;20063;-45
2022/01/08 07:27:00;;;;;;;1.10;0.50;;;;;;;0.87;80.67;95148.38;4859592;29;20415;-48
2022/01/08 07:29:27;;;;;;;0.88;0.60;;;;;;;0.99;80.17;95155.91;4858514;29;20050;-49
2022/01/08 07:31:54;;;;;;;1.98;0.68;;;;;;;1.00;81.25;95150.28;4849194;29;20038;-50
2022/01/08 07:34:21;;;;;;;0.45;0.43;;;;;;;0.94;83.02;95156.78;4840589;29;20050;-47
2022/01/08 07:36:48;;;;;;;1.40;0.60;;;;;;;0.86;84.11;95157.44;4844125;29;20038;-49
2022/01/08 07:39:15;;;;;;;0.90;0.70;;;;;;;0.81;85.19;95155.63;4842137;29;20144;-48
2022/01/08 07:41:42;;;;;;;1.45;1.13;;;;;;;0.79;85.71;95168.47;4859501;29;20488;-47
2022/01/08 07:44:09;;;;;;;1.60;0.60;;;;;;;0.73;86.91;95161.63;4859501;29;20491;-48
2022/01/08 07:46:36;;;;;;;1.52;0.95;;;;;;;0.80;86.87;95161.25;4856446;29;20102;-45
2022/01/08 07:49:02;;;;;;;1.30;0.70;;;;;;;0.70;87.98;95159.53;4847367;29;20518;-44
2022/01/08 07:51:32;;;;;;;2.28;0.80;;;;;;;0.33;91.96;95165.63;4856719;29;20057;-47
2022/01/08 07:53:59;;;;;;;1.13;0.60;;;;;;;0.21;93.40;95153.53;4840679;29;20065;-49
2022/01/08 07:56:26;;;;;;;1.08;0.63;;;;;;;0.37;93.13;95166.66;4839975;29;20050;-45
2022/01/08 07:58:53;;;;;;;2.78;0.70;;;;;;;0.40;92.46;95164.19;4843493;29;20048;-45
2022/01/08 08:01:21;;;;;;;2.42;0.65;;;;;;;0.37;93.47;95167.44;4857185;29;20576;-46
2022/01/08 08:03:49;;;;;;;2.10;0.90;;;;;;;0.34;93.98;95161.91;4857953;29;20070;-45
2022/01/08 08:06:16;;;;;;;1.42;0.80;;;;;;;0.34;94.55;95175.19;4858650;29;20049;-45
2022/01/08 08:08:44;;;;;;;1.83;0.68;;;;;;;0.34;94.88;95172.53;4855196;29;20045;-48
2022/01/08 08:11:11;;;;;;;2.55;0.90;;;;;;;0.30;95.30;95171.53;4840666;29;20386;-49
2022/01/08 08:13:38;;;;;;;4.93;1.10;;;;;;;0.22;97.18;95175.59;4846374;29;20069;-45
2022/01/08 08:16:07;;;;;;;1.27;0.80;;;;;;;0.31;95.98;95181.09;4858252;29;20412;-46
2022/01/08 08:18:34;;;;;;;1.58;0.98;;;;;;;0.20;96.62;95178.56;4857467;29;20077;-48
2022/01/08 08:21:01;;;;;;;2.80;1.15;;;;;;;0.17;97.04;95181.78;4861030;29;20082;-45
2022/01/08 08:23:28;;;;;;;3.25;0.90;;;;;;;0.17;97.65;95184.44;4857273;29;20050;-46
2022/01/08 08:25:55;;;;;;;1.15;0.80;;;;;;;0.22;97.13;95186.25;4843476;29;20056;-46
2022/01/08 08:28:22;;;;;;;2.70;0.80;;;;;;;0.17;97.79;95194.28;4845672;29;20050;-47
2022/01/08 08:30:49;;;;;;;2.92;1.10;;;;;;;0.17;97.83;95197.75;4861299;29;20045;-44
2022/01/08 08:33:16;;;;;;;4.00;0.90;;;;;;;0.26;97.42;95199.75;4862514;29;20057;-48
2022/01/08 08:35:43;;;;;;;1.73;1.00;;;;;;;0.08;98.20;95202.09;4862122;29;20046;-47
2022/01/08 08:38:11;;;;;;;2.78;1.23;;;;;;;0.23;97.42;95204.59;4843872;29;20050;-46
2022/01/08 08:40:38;;;;;;;2.45;1.00;;;;;;;0.33;97.58;95197.56;4858481;29;20164;-47
2022/01/08 08:43:05;;;;;;;1.05;0.82;;;;;;;0.33;97.68;95203.69;4862404;29;20216;-45
2022/01/08 08:45:32;;;;;;;2.35;0.80;;;;;;;0.43;96.65;95200.09;4862225;29;20073;-44
2022/01/08 08:47:59;;;;;;;2.60;1.00;;;;;;;0.51;96.46;95202.09;4860591;29;20057;-49
2022/01/08 08:50:26;;;;;;;2.15;0.93;;;;;;;0.54;96.87;95208.75;4861847;29;20148;-47
2022/01/08 08:52:54;;;;;;;1.00;0.60;;;;;;;0.55;96.43;95211.09;4856893;29;20050;-43
2022/01/08 08:55:21;;;;;;;1.25;0.90;;;;;;;0.67;95.73;95216.00;4843154;29;20061;-48
2022/01/08 08:57:48;;;;;;;1.98;0.73;;;;;;;0.69;94.75;95217.31;4843731;29;20050;-44
2022/01/08 09:00:15;;;;;;;2.28;0.70;;;;;;;0.70;94.45;95208.25;4850654;29;20056;-48
2022/01/08 09:02:42;;;;;;;1.17;0.75;;;;;;;0.80;93.64;95223.28;4845795;29;20041;-46
2022/01/08 09:05:10;;;;;;;1.13;0.73;;;;;;;0.79;93.32;95231.56;4841494;29;20046;-46
2022/01/08 09:07:38;;;;;;;0.75;0.70;;;;;;;0.95;93.04;95232.94;4842274;29;20405;-51
2022/01/08 09:10:09;;;;;;;1.15;0.73;;;;;;;0.86;91.83;95259.44;4843315;29;20161;-49
2022/01/08 09:12:37;;;;;;;1.52;0.80;;;;;;;0.97;91.15;95256.63;4843766;29;20050;-47
2022/01/08 09:15:06;;;;;;;1.35;0.65;;;;;;;0.86;91.08;95263.97;4853536;29;20060;-52
2022/01/08 09:17:34;;;;;;;1.90;0.80;;;;;;;0.90;91.85;95270.28;4861913;29;20049;-48
2022/01/08 09:20:04;;;;;;;1.25;0.75;;;;;;;0.79;91.11;95269.66;4854183;29;20530;-48
2022/01/08 09:22:31;;;;;;;1.30;0.80;;;;;;;0.89;91.06;95282.03;4826426;29;20057;-47
2022/01/08 09:24:58;;;;;;;1.40;0.80;;;;;;;0.85;89.35;95289.03;4842110;29;20092;-45
2022/01/08 09:27:25;;;;;;;1.30;0.63;;;;;;;0.97;89.46;95288.59;4843177;29;20046;-49
2022/01/08 09:29:52;;;;;;;0.90;0.80;;;;;;;0.79;89.68;95293.63;4854160;29;20500;-47
2022/01/08 09:32:19;;;;;;;1.20;0.73;;;;;;;0.66;90.54;95308.41;4850983;29;20073;-52
2022/01/08 09:34:46;;;;;;;1.42;0.88;;;;;;;0.70;90.91;95305.97;4840795;29;20058;-48
2022/01/08 09:37:13;;;;;;;1.55;0.70;;;;;;;0.61;91.82;95305.78;4841451;29;20106;-48
2022/01/08 09:39:40;;;;;;;1.02;0.80;;;;;;;0.49;92.71;95317.91;4842903;29;20424;-48
2022/01/08 09:42:10;;;;;;;3.00;0.82;;;;;;;0.21;94.20;95326.44;4842705;29;20045;-48
2022/01/08 09:44:39;;;;;;;1.27;0.85;;;;;;;0.48;93.09;95335.75;4842033;29;20050;-50
2022/01/08 09:47:06;;;;;;;1.08;0.70;;;;;;;0.24;92.39;95333.09;4826095;29;20057;-47
2022/01/08 09:49:33;;;;;;;1.58;0.80;;;;;;;0.47;91.79;95332.31;4845841;29;20042;-48
2022/01/08 09:52:03;;;;;;;3.42;0.80;;;;;;;0.52;89.26;95338.63;4854349;29;20068;-49
2022/01/08 09:54:31;;;;;;;1.77;1.00;;;;;;;0.67;88.86;95341.16;4842093;29;20050;-47
2022/01/08 09:56:58;;;;;;;2.28;1.30;;;;;;;0.63;89.04;95340.13;4842094;29;20057;-46
2022/01/08 09:59:28;;;;;;;2.22;1.10;;;;;;;0.61;87.74;95359.03;4844923;29;20049;-47
2022/01/08 10:01:58;;;;;;;1.42;1.00;;;;;;;0.62;87.81;95365.97;4859751;29;20057;-46
2022/01/08 10:04:35;;;;;;;3.53;0.80;;;;;;;0.54;87.64;95371.09;4860288;29;20056;-49
2022/01/08 10:07:23;;;;;;;1.88;1.13;;;;;;;0.51;86.20;95385.75;4860494;29;20050;-49
2022/01/08 10:10:01;;;;;;;1.25;0.85;;;;;;;0.55;86.17;95375.34;4859434;29;20056;-46
2022/01/08 10:12:45;;;;;;;1.77;1.13;;;;;;;0.52;86.46;95371.41;4859485;29;20091;-46
2022/01/08 10:18:01;;;;;;;1.13;0.85;;;;;;;0.62;85.72;95387.25;4859052;29;20038;-44
2022/01/08 10:20:40;;;;;;;1.60;0.98;;;;;;;0.59;85.70;95387.81;4860417;29;20500;-47
2022/01/08 10:23:33;;;;;;;2.08;1.13;;;;;;;0.69;84.87;95401.03;4859343;29;20094;-47
2022/01/08 10:26:04;;;;;;;1.83;1.00;;;;;;;0.82;84.70;95394.25;4856350;29;20140;-47
2022/01/08 10:28:46;;;;;;;1.42;0.80;;;;;;;0.74;84.47;95410.03;4860848;29;20435;-46
2022/01/08 10:31:26;;;;;;;1.85;1.05;;;;;;;0.63;84.27;95407.47;4850659;29;20132;-47
2022/01/08 10:34:02;;;;;;;1.63;1.13;;;;;;;0.78;84.57;95421.69;4859076;29;20053;-45
2022/01/08 10:36:35;;;;;;;4.75;1.23;;;;;;;0.70;84.38;95418.59;4859864;29;20061;-46
2022/01/08 10:39:17;;;;;;;2.20;1.25;;;;;;;0.65;84.27;95421.31;4850181;29;20066;-48
2022/01/08 10:41:47;;;;;;;2.75;1.27;;;;;;;0.83;83.68;95434.97;4850129;29;20050;-46
2022/01/08 10:44:24;;;;;;;1.40;0.70;;;;;;;0.57;83.36;95437.09;4858436;29;20068;-47
2022/01/08 10:46:51;;;;;;;2.53;1.02;;;;;;;0.72;83.26;95460.13;4849710;29;20560;-48
2022/01/08 10:49:32;;;;;;;2.42;1.33;;;;;;;0.86;83.44;95445.06;4842098;29;20133;-47
2022/01/08 10:52:08;;;;;;;1.52;1.25;;;;;;;0.99;82.30;95451.59;4847890;29;20162;-46
2022/01/08 10:54:40;;;;;;;1.75;1.13;;;;;;;0.98;82.02;95450.00;4859871;29;20517;-48
2022/01/08 10:57:12;;;;;;;3.35;1.35;;;;;;;1.08;81.43;95455.22;4859043;29;20128;-45
2022/01/08 10:59:40;;;;;;;1.75;1.25;;;;;;;1.23;80.64;95449.72;4856842;29;20045;-45
2022/01/08 11:02:11;;;;;;;3.38;1.30;;;;;;;0.99;80.45;95451.59;4848202;29;20546;-46
2022/01/08 11:04:41;;;;;;;3.65;1.85;;;;;;;1.16;78.14;95433.28;4859572;29;20045;-45
2022/01/08 11:07:12;;;;;;;2.70;1.40;;;;;;;0.98;79.12;95472.13;4859731;29;20065;-49
2022/01/08 11:09:41;;;;;;;2.42;1.27;;;;;;;1.26;78.19;95459.00;4849854;29;20050;-47
2022/01/08 11:12:17;;;;;;;2.03;1.30;;;;;;;1.25;77.32;95441.44;4825295;29;20144;-43
2022/01/08 11:17:27;;;;;;;3.78;1.60;;;;;;;1.58;76.98;95451.16;4855167;29;20065;-46
2022/01/08 11:20:05;;;;;;;2.90;1.50;;;;;;;1.56;77.42;95469.31;4844741;29;20648;-47
2022/01/08 11:22:34;;;;;;;4.00;1.90;;;;;;;1.56;76.41;95463.16;4841078;29;20054;-47
2022/01/08 11:25:06;;;;;;;2.85;1.80;;;;;;;1.58;77.83;95463.69;4840589;29;20133;-44
2022/01/08 11:27:58;;;;;;;2.75;1.88;;;;;;;1.47;76.90;95476.34;4841181;29;20052;-44
2022/01/08 11:30:28;;;;;;;4.07;1.90;;;;;;;1.21;76.69;95472.41;4848503;29;20128;-44
2022/01/08 11:33:00;;;;;;;2.47;1.35;;;;;;;0.94;76.34;95479.06;4859432;29;20080;-46
2022/01/08 11:35:37;;;;;;;4.75;2.17;;;;;;;1.06;76.27;95474.13;4858353;29;20064;-46
2022/01/08 11:38:07;;;;;;;2.90;1.98;;;;;;;1.15;77.17;95483.09;4858161;29;20510;-46
2022/01/08 11:40:43;;;;;;;3.40;1.80;;;;;;;1.02;75.98;95477.66;4846944;29;20137;-49
2022/01/08 11:43:13;;;;;;;6.78;3.28;;;;;;;1.19;76.61;95469.22;4841113;29;20540;-45
2022/01/08 11:45:47;;;;;;;3.70;1.75;;;;;;;1.18;75.89;95468.44;4840286;29;20049;-45
2022/01/08 11:48:19;;;;;;;3.03;1.98;;;;;;;1.06;77.12;95476.00;4840698;29;20049;-45
2022/01/08 11:50:59;;;;;;;3.20;2.00;;;;;;;1.21;75.83;95477.75;4840614;29;20057;-49
2022/01/08 11:53:28;;;;;;;5.22;2.30;;;;;;;1.22;76.54;95471.31;4845152;29;20212;-43
2022/01/08 11:55:58;;;;;;;3.95;2.15;;;;;;;1.30;75.48;95465.34;4861904;29;20476;-51
2022/01/08 11:58:28;;;;;;;4.53;2.20;;;;;;;1.43;75.24;95470.00;4863045;29;20488;-46
2022/01/08 12:00:59;;;;;;;3.22;1.83;;;;;;;1.20;76.65;95465.47;4860964;29;20056;-51
2022/01/08 12:03:37;;;;;;;3.50;1.90;;;;;;;1.35;75.82;95473.28;4862969;29;20061;-48
2022/01/08 12:08:57;;;;;;;2.58;1.70;;;;;;;1.86;73.48;95472.66;4862878;29;20052;-52
2022/01/08 12:11:24;;;;;;;3.75;1.90;;;;;;;1.92;74.86;95460.84;4850764;29;20045;-51
2022/01/08 12:13:52;;;;;;;4.20;2.20;;;;;;;1.93;74.03;95467.75;4862632;29;20492;-48
2022/01/08 12:16:32;;;;;;;2.78;1.70;;;;;;;2.64;72.36;95475.78;4861813;29;20056;-50